PAL718 RPVM-RPUS
Flight info
| Callsign | PAL718 |
|---|---|
| Flight time | 1h 3m |
| Altitude | 34000 |
| Route | MULOP4P MULOP W11 MIA W16 CIA W4 MALIB |
| Aircraft | B77W/H-SDE1E2E3FGHIJ2J3J4J5M1RWXY/LB1D1 |
Departure
| Time | 2026-05-05 15:51 |
|---|---|
| Airport | Mactan Cebu International Airport (RPVM) |
Arrival
| Time | 2026-05-05 16:55 |
|---|---|
| Airport | San Fernando Airport (RPUS) |
| Time | Latitude | Longitude | Altitude | Speed | Heading |
|---|---|---|---|---|---|
| 2026-05-05 15:24 | 10.31508 | 123.97932 | 43 ft | 0 kts | 315° |
| 2026-05-05 15:39 | 10.31505 | 123.97935 | 43 ft | 3 kts | 314° |
| 2026-05-05 15:39 | 10.31491 | 123.97950 | 41 ft | 3 kts | 314° |
| 2026-05-05 15:40 | 10.31477 | 123.97964 | 38 ft | 3 kts | 314° |
| 2026-05-05 15:40 | 10.31464 | 123.97978 | 39 ft | 3 kts | 302° |
| 2026-05-05 15:40 | 10.31458 | 123.97993 | 39 ft | 3 kts | 249° |
| 2026-05-05 15:40 | 10.31469 | 123.98008 | 39 ft | 3 kts | 223° |
| 2026-05-05 15:41 | 10.31480 | 123.98018 | 39 ft | 1 kts | 225° |
| 2026-05-05 15:43 | 10.31475 | 123.98013 | 40 ft | 2 kts | 225° |
| 2026-05-05 15:43 | 10.31456 | 123.97994 | 42 ft | 5 kts | 225° |
| 2026-05-05 15:43 | 10.31430 | 123.97968 | 42 ft | 6 kts | 225° |
| 2026-05-05 15:44 | 10.31401 | 123.97938 | 43 ft | 6 kts | 225° |
| 2026-05-05 15:44 | 10.31368 | 123.97905 | 43 ft | 7 kts | 225° |
| 2026-05-05 15:44 | 10.31325 | 123.97898 | 43 ft | 7 kts | 150° |
| 2026-05-05 15:44 | 10.31288 | 123.97932 | 44 ft | 7 kts | 136° |
| 2026-05-05 15:45 | 10.31252 | 123.97968 | 44 ft | 7 kts | 135° |
| 2026-05-05 15:45 | 10.31207 | 123.97978 | 44 ft | 7 kts | 197° |
| 2026-05-05 15:45 | 10.31164 | 123.97947 | 44 ft | 8 kts | 222° |
| 2026-05-05 15:45 | 10.31123 | 123.97906 | 43 ft | 9 kts | 224° |
| 2026-05-05 15:46 | 10.31076 | 123.97859 | 43 ft | 10 kts | 224° |
| 2026-05-05 15:46 | 10.31025 | 123.97808 | 43 ft | 11 kts | 225° |
| 2026-05-05 15:46 | 10.30971 | 123.97754 | 43 ft | 11 kts | 225° |
| 2026-05-05 15:46 | 10.30918 | 123.97700 | 43 ft | 11 kts | 225° |
| 2026-05-05 15:47 | 10.30864 | 123.97646 | 43 ft | 11 kts | 225° |
| 2026-05-05 15:47 | 10.30827 | 123.97610 | 43 ft | 11 kts | 223° |
| 2026-05-05 15:47 | 10.30755 | 123.97539 | 43 ft | 11 kts | 225° |
| 2026-05-05 15:47 | 10.30701 | 123.97485 | 44 ft | 11 kts | 224° |
| 2026-05-05 15:48 | 10.30648 | 123.97431 | 44 ft | 11 kts | 224° |
| 2026-05-05 15:48 | 10.30594 | 123.97377 | 44 ft | 11 kts | 224° |
| 2026-05-05 15:48 | 10.30540 | 123.97323 | 44 ft | 11 kts | 224° |
| 2026-05-05 15:48 | 10.30486 | 123.97270 | 44 ft | 11 kts | 224° |
| 2026-05-05 15:49 | 10.30432 | 123.97216 | 44 ft | 11 kts | 224° |
| 2026-05-05 15:49 | 10.30389 | 123.97172 | 42 ft | 5 kts | 224° |
| 2026-05-05 15:49 | 10.30358 | 123.97161 | 44 ft | 5 kts | 174° |
| 2026-05-05 15:49 | 10.30328 | 123.97181 | 43 ft | 6 kts | 136° |
| 2026-05-05 15:50 | 10.30298 | 123.97212 | 43 ft | 7 kts | 135° |
| 2026-05-05 15:50 | 10.30261 | 123.97250 | 42 ft | 8 kts | 135° |
| 2026-05-05 15:50 | 10.30217 | 123.97294 | 41 ft | 10 kts | 135° |
| 2026-05-05 15:50 | 10.30179 | 123.97340 | 40 ft | 7 kts | 109° |
| 2026-05-05 15:51 | 10.30200 | 123.97384 | 40 ft | 11 kts | 53° |
| 2026-05-05 15:51 | 10.30344 | 123.97533 | 41 ft | 62 kts | 44° |
| 2026-05-05 15:51 | 10.30890 | 123.98078 | 41 ft | 155 kts | 44° |
| 2026-05-05 15:51 | 10.31705 | 123.98884 | 884 ft | 162 kts | 45° |
| 2026-05-05 15:52 | 10.32496 | 123.99693 | 2011 ft | 161 kts | 46° |
| 2026-05-05 15:52 | 10.33298 | 124.00510 | 3053 ft | 165 kts | 40° |
| 2026-05-05 15:52 | 10.34432 | 124.00822 | 3824 ft | 188 kts | 355° |
| 2026-05-05 15:52 | 10.35800 | 124.00439 | 4253 ft | 219 kts | 346° |
| 2026-05-05 15:53 | 10.37340 | 123.99970 | 4786 ft | 238 kts | 346° |
| 2026-05-05 15:53 | 10.38954 | 123.99492 | 5571 ft | 244 kts | 346° |
| 2026-05-05 15:53 | 10.40606 | 123.99015 | 6372 ft | 250 kts | 346° |
| 2026-05-05 15:53 | 10.42321 | 123.98533 | 7034 ft | 262 kts | 347° |
| 2026-05-05 15:54 | 10.44140 | 123.98032 | 7697 ft | 278 kts | 347° |
| 2026-05-05 15:54 | 10.46025 | 123.97521 | 8505 ft | 289 kts | 347° |
| 2026-05-05 15:54 | 10.47989 | 123.96993 | 9458 ft | 295 kts | 347° |
| 2026-05-05 15:54 | 10.49929 | 123.96307 | 10299 ft | 301 kts | 330° |
| 2026-05-05 15:55 | 10.51633 | 123.94959 | 10773 ft | 325 kts | 319° |
| 2026-05-05 15:55 | 10.53377 | 123.93327 | 11000 ft | 356 kts | 317° |
| 2026-05-05 15:55 | 10.55245 | 123.91559 | 11441 ft | 374 kts | 318° |
| 2026-05-05 15:55 | 10.57183 | 123.89743 | 12267 ft | 383 kts | 318° |
| 2026-05-05 15:56 | 10.59164 | 123.87913 | 13194 ft | 387 kts | 319° |
| 2026-05-05 15:56 | 10.61183 | 123.86067 | 14074 ft | 392 kts | 319° |
| 2026-05-05 15:56 | 10.63231 | 123.84213 | 14843 ft | 397 kts | 319° |
| 2026-05-05 15:56 | 10.65314 | 123.82334 | 15629 ft | 403 kts | 319° |
| 2026-05-05 15:57 | 10.67432 | 123.80429 | 16386 ft | 409 kts | 319° |
| 2026-05-05 15:57 | 10.69575 | 123.78503 | 17125 ft | 415 kts | 319° |
| 2026-05-05 15:57 | 10.71726 | 123.76571 | 17861 ft | 420 kts | 320° |
| 2026-05-05 15:57 | 10.73960 | 123.74564 | 18535 ft | 426 kts | 320° |
| 2026-05-05 15:58 | 10.76162 | 123.72585 | 19168 ft | 431 kts | 319° |
| 2026-05-05 15:58 | 10.78448 | 123.70529 | 19826 ft | 435 kts | 319° |
| 2026-05-05 15:58 | 10.80695 | 123.68508 | 20461 ft | 440 kts | 319° |
| 2026-05-05 15:58 | 10.82996 | 123.66438 | 21109 ft | 444 kts | 319° |
| 2026-05-05 15:59 | 10.85323 | 123.64343 | 21748 ft | 448 kts | 319° |
| 2026-05-05 15:59 | 10.87667 | 123.62234 | 22352 ft | 453 kts | 319° |
| 2026-05-05 15:59 | 10.90044 | 123.60094 | 22941 ft | 458 kts | 319° |
| 2026-05-05 15:59 | 10.92447 | 123.57929 | 23503 ft | 463 kts | 319° |
| 2026-05-05 16:00 | 10.94869 | 123.55747 | 24000 ft | 467 kts | 319° |
| 2026-05-05 16:00 | 10.97306 | 123.53552 | 24552 ft | 468 kts | 319° |
| 2026-05-05 16:00 | 10.99760 | 123.51353 | 25113 ft | 470 kts | 320° |
| 2026-05-05 16:00 | 11.02350 | 123.49314 | 25654 ft | 472 kts | 325° |
| 2026-05-05 16:01 | 11.05068 | 123.47410 | 26144 ft | 475 kts | 326° |
| 2026-05-05 16:01 | 11.07823 | 123.45516 | 26594 ft | 480 kts | 326° |
| 2026-05-05 16:01 | 11.10602 | 123.43609 | 27043 ft | 483 kts | 326° |
| 2026-05-05 16:01 | 11.13365 | 123.41707 | 27479 ft | 488 kts | 326° |
| 2026-05-05 16:02 | 11.16183 | 123.39756 | 27933 ft | 491 kts | 326° |
| 2026-05-05 16:02 | 11.19015 | 123.37785 | 28433 ft | 493 kts | 325° |
| 2026-05-05 16:02 | 11.21835 | 123.35816 | 29086 ft | 492 kts | 325° |
| 2026-05-05 16:02 | 11.24665 | 123.33837 | 29602 ft | 493 kts | 325° |
| 2026-05-05 16:03 | 11.27499 | 123.31853 | 30107 ft | 494 kts | 324° |
| 2026-05-05 16:03 | 11.30329 | 123.29872 | 30594 ft | 493 kts | 324° |
| 2026-05-05 16:03 | 11.33154 | 123.27894 | 31145 ft | 491 kts | 324° |
| 2026-05-05 16:03 | 11.35964 | 123.25926 | 31834 ft | 486 kts | 324° |
| 2026-05-05 16:04 | 11.38707 | 123.24005 | 32483 ft | 482 kts | 324° |
| 2026-05-05 16:04 | 11.41468 | 123.22072 | 33067 ft | 480 kts | 324° |
| 2026-05-05 16:04 | 11.44216 | 123.20148 | 33631 ft | 479 kts | 324° |
| 2026-05-05 16:04 | 11.46968 | 123.18219 | 33916 ft | 482 kts | 324° |
| 2026-05-05 16:05 | 11.49738 | 123.16277 | 33894 ft | 483 kts | 324° |
| 2026-05-05 16:05 | 11.55256 | 123.12409 | 33891 ft | 479 kts | 324° |
| 2026-05-05 16:06 | 11.60738 | 123.08564 | 33901 ft | 478 kts | 324° |
| 2026-05-05 16:06 | 11.65332 | 123.05340 | 33903 ft | 479 kts | 324° |
| 2026-05-05 16:07 | 11.71711 | 123.00862 | 33908 ft | 479 kts | 324° |
| 2026-05-05 16:07 | 11.76276 | 122.97655 | 33904 ft | 479 kts | 324° |
| 2026-05-05 16:08 | 11.81761 | 122.93800 | 33907 ft | 479 kts | 324° |
| 2026-05-05 16:08 | 11.87250 | 122.89941 | 33907 ft | 478 kts | 324° |
| 2026-05-05 16:09 | 11.92735 | 122.86084 | 33905 ft | 479 kts | 324° |
| 2026-05-05 16:09 | 11.98218 | 122.82224 | 33911 ft | 479 kts | 324° |
| 2026-05-05 16:10 | 12.03720 | 122.78350 | 33914 ft | 479 kts | 323° |
| 2026-05-05 16:10 | 12.09207 | 122.74484 | 33909 ft | 479 kts | 323° |
| 2026-05-05 16:11 | 12.14671 | 122.70632 | 33910 ft | 479 kts | 323° |
| 2026-05-05 16:12 | 12.25665 | 122.62877 | 33910 ft | 479 kts | 323° |
| 2026-05-05 16:13 | 12.39354 | 122.53209 | 33911 ft | 479 kts | 323° |
| 2026-05-05 16:13 | 12.44841 | 122.49332 | 33910 ft | 479 kts | 323° |
| 2026-05-05 16:14 | 12.55785 | 122.41592 | 33909 ft | 477 kts | 323° |
| 2026-05-05 16:15 | 12.66697 | 122.33863 | 33910 ft | 476 kts | 323° |
| 2026-05-05 16:16 | 12.77589 | 122.26141 | 33912 ft | 476 kts | 323° |
| 2026-05-05 16:17 | 12.85716 | 122.20374 | 33909 ft | 476 kts | 323° |
| 2026-05-05 16:18 | 12.91224 | 122.16462 | 33926 ft | 490 kts | 323° |
| 2026-05-05 16:18 | 12.94053 | 122.14450 | 33921 ft | 499 kts | 323° |
| 2026-05-05 16:19 | 13.02737 | 122.08278 | 33912 ft | 508 kts | 324° |
| 2026-05-05 16:19 | 13.11428 | 122.02098 | 33913 ft | 506 kts | 324° |
| 2026-05-05 16:20 | 13.22937 | 121.93902 | 33914 ft | 505 kts | 324° |
| 2026-05-05 16:22 | 13.37378 | 121.83604 | 33915 ft | 506 kts | 324° |
| 2026-05-05 16:23 | 13.48954 | 121.75338 | 33919 ft | 506 kts | 323° |
| 2026-05-05 16:23 | 13.57342 | 121.69342 | 33917 ft | 507 kts | 323° |
| 2026-05-05 16:24 | 13.63096 | 121.65225 | 33916 ft | 506 kts | 323° |
| 2026-05-05 16:25 | 13.71769 | 121.59017 | 33918 ft | 506 kts | 323° |
| 2026-05-05 16:25 | 13.80434 | 121.52810 | 33920 ft | 506 kts | 323° |
| 2026-05-05 16:26 | 13.91986 | 121.44524 | 33923 ft | 505 kts | 323° |
| 2026-05-05 16:27 | 13.97753 | 121.40383 | 33925 ft | 505 kts | 323° |
| 2026-05-05 16:27 | 14.03521 | 121.36238 | 33922 ft | 505 kts | 323° |
| 2026-05-05 16:28 | 14.09286 | 121.32095 | 33922 ft | 505 kts | 323° |
| 2026-05-05 16:28 | 14.15023 | 121.27969 | 33914 ft | 505 kts | 323° |
| 2026-05-05 16:29 | 14.20788 | 121.23819 | 33912 ft | 505 kts | 323° |
| 2026-05-05 16:29 | 14.26544 | 121.19673 | 33907 ft | 503 kts | 323° |
| 2026-05-05 16:30 | 14.32270 | 121.15548 | 33907 ft | 502 kts | 323° |
| 2026-05-05 16:30 | 14.37991 | 121.11422 | 33911 ft | 501 kts | 323° |
| 2026-05-05 16:31 | 14.43697 | 121.07303 | 33913 ft | 500 kts | 323° |
| 2026-05-05 16:31 | 14.49390 | 121.03191 | 33913 ft | 500 kts | 323° |
| 2026-05-05 16:32 | 14.55144 | 120.99156 | 33911 ft | 500 kts | 325° |
| 2026-05-05 16:32 | 14.60984 | 120.95260 | 33902 ft | 500 kts | 325° |
| 2026-05-05 16:33 | 14.66869 | 120.91411 | 33901 ft | 501 kts | 329° |
| 2026-05-05 16:33 | 14.73274 | 120.88498 | 33903 ft | 504 kts | 337° |
| 2026-05-05 16:34 | 14.79780 | 120.85924 | 33903 ft | 504 kts | 337° |
| 2026-05-05 16:34 | 14.86311 | 120.83306 | 33816 ft | 499 kts | 336° |
| 2026-05-05 16:35 | 14.89575 | 120.81980 | 32798 ft | 506 kts | 336° |
| 2026-05-05 16:35 | 14.92843 | 120.80644 | 31893 ft | 506 kts | 336° |
| 2026-05-05 16:35 | 14.96123 | 120.79299 | 30909 ft | 508 kts | 337° |
| 2026-05-05 16:35 | 14.99419 | 120.77947 | 29834 ft | 512 kts | 337° |
| 2026-05-05 16:36 | 15.02740 | 120.76585 | 28957 ft | 510 kts | 337° |
| 2026-05-05 16:36 | 15.06018 | 120.75242 | 28182 ft | 505 kts | 337° |
| 2026-05-05 16:36 | 15.09270 | 120.73911 | 27458 ft | 501 kts | 337° |
| 2026-05-05 16:36 | 15.12498 | 120.72589 | 26743 ft | 496 kts | 337° |
| 2026-05-05 16:37 | 15.15655 | 120.71295 | 26068 ft | 492 kts | 337° |
| 2026-05-05 16:37 | 15.18863 | 120.69979 | 25362 ft | 488 kts | 337° |
| 2026-05-05 16:37 | 15.21975 | 120.68703 | 24674 ft | 485 kts | 337° |
| 2026-05-05 16:37 | 15.25099 | 120.67421 | 23987 ft | 482 kts | 338° |
| 2026-05-05 16:38 | 15.28204 | 120.66146 | 23253 ft | 478 kts | 338° |
| 2026-05-05 16:38 | 15.31291 | 120.64878 | 22501 ft | 474 kts | 338° |
| 2026-05-05 16:38 | 15.34340 | 120.63626 | 21809 ft | 469 kts | 338° |
| 2026-05-05 16:38 | 15.37354 | 120.62388 | 21144 ft | 464 kts | 338° |
| 2026-05-05 16:39 | 15.40337 | 120.61162 | 20489 ft | 459 kts | 338° |
| 2026-05-05 16:39 | 15.43272 | 120.59956 | 19881 ft | 453 kts | 338° |
| 2026-05-05 16:39 | 15.46156 | 120.58769 | 19271 ft | 449 kts | 338° |
| 2026-05-05 16:39 | 15.49055 | 120.57577 | 18630 ft | 446 kts | 338° |
| 2026-05-05 16:40 | 15.51925 | 120.56395 | 18041 ft | 440 kts | 338° |
| 2026-05-05 16:40 | 15.54768 | 120.55225 | 17311 ft | 438 kts | 338° |
| 2026-05-05 16:40 | 15.57577 | 120.54068 | 16726 ft | 432 kts | 338° |
| 2026-05-05 16:40 | 15.60355 | 120.52924 | 16170 ft | 426 kts | 338° |
| 2026-05-05 16:41 | 15.63111 | 120.51788 | 15461 ft | 425 kts | 338° |
| 2026-05-05 16:41 | 15.65840 | 120.50664 | 14913 ft | 420 kts | 338° |
| 2026-05-05 16:41 | 15.68542 | 120.49579 | 14392 ft | 414 kts | 341° |
| 2026-05-05 16:41 | 15.71272 | 120.48767 | 13764 ft | 412 kts | 346° |
| 2026-05-05 16:42 | 15.74042 | 120.48058 | 13190 ft | 407 kts | 346° |
| 2026-05-05 16:42 | 15.76768 | 120.47353 | 12645 ft | 402 kts | 346° |
| 2026-05-05 16:42 | 15.79483 | 120.46644 | 11926 ft | 402 kts | 346° |
| 2026-05-05 16:42 | 15.82177 | 120.45935 | 11432 ft | 396 kts | 346° |
| 2026-05-05 16:43 | 15.84805 | 120.45183 | 11098 ft | 384 kts | 342° |
| 2026-05-05 16:43 | 15.87252 | 120.44219 | 11018 ft | 369 kts | 338° |
| 2026-05-05 16:43 | 15.89521 | 120.43228 | 10837 ft | 338 kts | 337° |
| 2026-05-05 16:43 | 15.91609 | 120.42293 | 10660 ft | 320 kts | 337° |
| 2026-05-05 16:44 | 15.93614 | 120.41388 | 10590 ft | 308 kts | 337° |
| 2026-05-05 16:44 | 15.95547 | 120.40510 | 10445 ft | 300 kts | 337° |
| 2026-05-05 16:44 | 15.97443 | 120.39644 | 10246 ft | 293 kts | 337° |
| 2026-05-05 16:44 | 15.99299 | 120.38798 | 10140 ft | 292 kts | 337° |
| 2026-05-05 16:45 | 16.01169 | 120.37947 | 10020 ft | 292 kts | 337° |
| 2026-05-05 16:45 | 16.03021 | 120.37103 | 9677 ft | 298 kts | 337° |
| 2026-05-05 16:45 | 16.04926 | 120.36233 | 9325 ft | 298 kts | 337° |
| 2026-05-05 16:45 | 16.06824 | 120.35367 | 8970 ft | 298 kts | 337° |
| 2026-05-05 16:46 | 16.08718 | 120.34506 | 8630 ft | 297 kts | 337° |
| 2026-05-05 16:46 | 16.10612 | 120.33643 | 8285 ft | 296 kts | 337° |
| 2026-05-05 16:46 | 16.12498 | 120.32782 | 7949 ft | 296 kts | 337° |
| 2026-05-05 16:46 | 16.14380 | 120.31919 | 7622 ft | 295 kts | 337° |
| 2026-05-05 16:47 | 16.16244 | 120.31029 | 7223 ft | 294 kts | 333° |
| 2026-05-05 16:47 | 16.18044 | 120.29985 | 6871 ft | 295 kts | 332° |
| 2026-05-05 16:47 | 16.19858 | 120.29006 | 6532 ft | 293 kts | 337° |
| 2026-05-05 16:47 | 16.21765 | 120.28295 | 6192 ft | 286 kts | 347° |
| 2026-05-05 16:48 | 16.23670 | 120.27900 | 5860 ft | 272 kts | 354° |
| 2026-05-05 16:48 | 16.25512 | 120.27730 | 5550 ft | 259 kts | 359° |
| 2026-05-05 16:48 | 16.27273 | 120.27692 | 5264 ft | 247 kts | 1° |
| 2026-05-05 16:48 | 16.28926 | 120.27727 | 5048 ft | 228 kts | 3° |
| 2026-05-05 16:49 | 16.30502 | 120.27802 | 4778 ft | 226 kts | 4° |
| 2026-05-05 16:49 | 16.32045 | 120.27899 | 4511 ft | 224 kts | 5° |
| 2026-05-05 16:49 | 16.33586 | 120.28011 | 4255 ft | 220 kts | 5° |
| 2026-05-05 16:49 | 16.35078 | 120.28128 | 4144 ft | 209 kts | 5° |
| 2026-05-05 16:50 | 16.36482 | 120.28244 | 4092 ft | 203 kts | 5° |
| 2026-05-05 16:50 | 16.37901 | 120.28366 | 3940 ft | 205 kts | 5° |
| 2026-05-05 16:50 | 16.39292 | 120.28489 | 3684 ft | 194 kts | 5° |
| 2026-05-05 16:50 | 16.40588 | 120.28605 | 3453 ft | 180 kts | 5° |
| 2026-05-05 16:51 | 16.41808 | 120.28715 | 3264 ft | 175 kts | 5° |
| 2026-05-05 16:51 | 16.43022 | 120.28825 | 3061 ft | 175 kts | 5° |
| 2026-05-05 16:51 | 16.44227 | 120.28934 | 2857 ft | 171 kts | 5° |
| 2026-05-05 16:51 | 16.45407 | 120.29041 | 2675 ft | 171 kts | 5° |
| 2026-05-05 16:52 | 16.46596 | 120.29148 | 2424 ft | 171 kts | 5° |
| 2026-05-05 16:52 | 16.47774 | 120.29254 | 2196 ft | 169 kts | 5° |
| 2026-05-05 16:52 | 16.48940 | 120.29360 | 1968 ft | 168 kts | 5° |
| 2026-05-05 16:52 | 16.49713 | 120.29430 | 1825 ft | 168 kts | 5° |
| 2026-05-05 16:53 | 16.51272 | 120.29571 | 1527 ft | 168 kts | 5° |
| 2026-05-05 16:53 | 16.52044 | 120.29640 | 1384 ft | 168 kts | 5° |
| 2026-05-05 16:53 | 16.53175 | 120.29742 | 1146 ft | 158 kts | 5° |
| 2026-05-05 16:53 | 16.54232 | 120.29837 | 935 ft | 150 kts | 5° |
| 2026-05-05 16:54 | 16.55274 | 120.29931 | 697 ft | 151 kts | 6° |
| 2026-05-05 16:54 | 16.56317 | 120.30015 | 472 ft | 150 kts | 6° |
| 2026-05-05 16:54 | 16.57345 | 120.30113 | 273 ft | 148 kts | 6° |
| 2026-05-05 16:54 | 16.58379 | 120.30212 | 43 ft | 149 kts | 6° |
| 2026-05-05 16:55 | 16.59320 | 120.30299 | 36 ft | 113 kts | 5° |
| 2026-05-05 16:55 | 16.59788 | 120.30340 | 36 ft | 25 kts | 5° |
| 2026-05-05 16:55 | 16.59865 | 120.30348 | 37 ft | 7 kts | 5° |
| 2026-05-05 16:55 | 16.59879 | 120.30354 | 37 ft | 2 kts | 39° |
| 2026-05-05 16:56 | 16.59879 | 120.30373 | 36 ft | 3 kts | 106° |
| 2026-05-05 16:56 | 16.59866 | 120.30392 | 39 ft | 4 kts | 128° |
| 2026-05-05 16:56 | 16.59844 | 120.30417 | 37 ft | 5 kts | 133° |
| 2026-05-05 16:56 | 16.59825 | 120.30448 | 37 ft | 6 kts | 91° |
| 2026-05-05 16:57 | 16.59808 | 120.30481 | 38 ft | 6 kts | 162° |
| 2026-05-05 16:57 | 16.59793 | 120.30480 | 39 ft | 0 kts | 185° |